sensor_id;sensor_type;location;lat;lon;timestamp;temperature;humidity
9223;DHT22;7557;51.698;3.942;2023-08-21T00:00:57;21.60;99.90
9223;DHT22;7557;51.698;3.942;2023-08-21T00:03:24;21.60;99.90
9223;DHT22;7557;51.698;3.942;2023-08-21T00:05:51;21.50;99.90
9223;DHT22;7557;51.698;3.942;2023-08-21T00:08:20;21.50;99.90
9223;DHT22;7557;51.698;3.942;2023-08-21T00:10:47;21.50;99.90
9223;DHT22;7557;51.698;3.942;2023-08-21T00:13:14;21.40;99.90
9223;DHT22;7557;51.698;3.942;2023-08-21T00:15:41;21.40;99.90
9223;DHT22;7557;51.698;3.942;2023-08-21T00:18:09;21.30;99.90
9223;DHT22;7557;51.698;3.942;2023-08-21T00:20:36;21.30;99.90
9223;DHT22;7557;51.698;3.942;2023-08-21T00:23:03;21.30;99.90
9223;DHT22;7557;51.698;3.942;2023-08-21T00:25:33;21.30;99.90
9223;DHT22;7557;51.698;3.942;2023-08-21T00:28:00;21.30;99.90
9223;DHT22;7557;51.698;3.942;2023-08-21T00:30:28;21.30;99.90
9223;DHT22;7557;51.698;3.942;2023-08-21T00:32:55;21.30;99.90
9223;DHT22;7557;51.698;3.942;2023-08-21T00:35:22;21.40;99.90
9223;DHT22;7557;51.698;3.942;2023-08-21T00:37:49;21.40;99.90
9223;DHT22;7557;51.698;3.942;2023-08-21T00:40:17;21.40;99.90
9223;DHT22;7557;51.698;3.942;2023-08-21T00:42:46;21.40;99.90
9223;DHT22;7557;51.698;3.942;2023-08-21T00:48:36;21.20;99.90
9223;DHT22;7557;51.698;3.942;2023-08-21T00:51:04;21.00;99.90
9223;DHT22;7557;51.698;3.942;2023-08-21T00:53:32;21.00;99.90
9223;DHT22;7557;51.698;3.942;2023-08-21T00:56:00;21.00;99.90
9223;DHT22;7557;51.698;3.942;2023-08-21T00:58:29;21.10;99.90
9223;DHT22;7557;51.698;3.942;2023-08-21T01:00:57;21.10;99.90
9223;DHT22;7557;51.698;3.942;2023-08-21T01:03:24;21.10;99.90
9223;DHT22;7557;51.698;3.942;2023-08-21T01:05:52;21.10;99.90
9223;DHT22;7557;51.698;3.942;2023-08-21T01:08:27;21.20;99.90
9223;DHT22;7557;51.698;3.942;2023-08-21T01:10:58;21.20;99.90
9223;DHT22;7557;51.698;3.942;2023-08-21T01:13:39;21.30;99.90
9223;DHT22;7557;51.698;3.942;2023-08-21T01:16:11;21.30;99.90
9223;DHT22;7557;51.698;3.942;2023-08-21T01:18:41;21.30;99.90
9223;DHT22;7557;51.698;3.942;2023-08-21T01:21:09;21.30;99.90
9223;DHT22;7557;51.698;3.942;2023-08-21T01:23:38;21.40;99.90
9223;DHT22;7557;51.698;3.942;2023-08-21T01:26:05;21.40;99.90
9223;DHT22;7557;51.698;3.942;2023-08-21T01:28:34;21.40;99.90
9223;DHT22;7557;51.698;3.942;2023-08-21T01:31:07;21.40;99.90
9223;DHT22;7557;51.698;3.942;2023-08-21T01:33:39;21.50;99.90
9223;DHT22;7557;51.698;3.942;2023-08-21T01:36:07;21.50;99.90
9223;DHT22;7557;51.698;3.942;2023-08-21T01:38:35;21.40;99.90
9223;DHT22;7557;51.698;3.942;2023-08-21T01:41:04;21.40;99.90
9223;DHT22;7557;51.698;3.942;2023-08-21T01:43:31;21.40;99.90
9223;DHT22;7557;51.698;3.942;2023-08-21T01:46:01;21.40;99.90
9223;DHT22;7557;51.698;3.942;2023-08-21T01:48:29;21.40;99.90
9223;DHT22;7557;51.698;3.942;2023-08-21T01:50:56;21.40;99.90
9223;DHT22;7557;51.698;3.942;2023-08-21T01:53:23;21.40;99.90
9223;DHT22;7557;51.698;3.942;2023-08-21T01:55:51;21.40;99.90
9223;DHT22;7557;51.698;3.942;2023-08-21T01:58:19;21.50;99.90
9223;DHT22;7557;51.698;3.942;2023-08-21T02:00:47;21.50;99.90
9223;DHT22;7557;51.698;3.942;2023-08-21T02:03:14;21.40;99.90
9223;DHT22;7557;51.698;3.942;2023-08-21T02:05:41;21.40;99.90
9223;DHT22;7557;51.698;3.942;2023-08-21T02:08:13;21.40;99.90
9223;DHT22;7557;51.698;3.942;2023-08-21T02:10:50;21.40;99.90
9223;DHT22;7557;51.698;3.942;2023-08-21T02:13:19;21.40;99.90
9223;DHT22;7557;51.698;3.942;2023-08-21T02:15:46;21.40;99.90
9223;DHT22;7557;51.698;3.942;2023-08-21T02:18:14;21.40;99.90
9223;DHT22;7557;51.698;3.942;2023-08-21T02:20:41;21.40;99.90
9223;DHT22;7557;51.698;3.942;2023-08-21T02:23:08;21.30;99.90
9223;DHT22;7557;51.698;3.942;2023-08-21T02:25:35;21.30;99.90
9223;DHT22;7557;51.698;3.942;2023-08-21T02:28:03;21.30;99.90
9223;DHT22;7557;51.698;3.942;2023-08-21T02:30:31;21.20;99.90
9223;DHT22;7557;51.698;3.942;2023-08-21T02:32:59;21.20;99.90
9223;DHT22;7557;51.698;3.942;2023-08-21T02:35:26;21.20;99.90
9223;DHT22;7557;51.698;3.942;2023-08-21T02:37:53;21.20;99.90
9223;DHT22;7557;51.698;3.942;2023-08-21T02:40:20;21.20;99.90
9223;DHT22;7557;51.698;3.942;2023-08-21T02:42:48;21.20;99.90
9223;DHT22;7557;51.698;3.942;2023-08-21T02:45:15;21.20;99.90
9223;DHT22;7557;51.698;3.942;2023-08-21T02:47:44;21.20;99.90
9223;DHT22;7557;51.698;3.942;2023-08-21T02:50:11;21.20;99.90
9223;DHT22;7557;51.698;3.942;2023-08-21T02:52:38;21.10;99.90
9223;DHT22;7557;51.698;3.942;2023-08-21T02:55:06;21.10;99.90
9223;DHT22;7557;51.698;3.942;2023-08-21T02:57:33;21.10;99.90
9223;DHT22;7557;51.698;3.942;2023-08-21T03:00:01;21.00;99.90
9223;DHT22;7557;51.698;3.942;2023-08-21T03:02:28;21.00;99.90
9223;DHT22;7557;51.698;3.942;2023-08-21T03:04:57;21.00;99.90
9223;DHT22;7557;51.698;3.942;2023-08-21T03:07:24;20.90;99.90
9223;DHT22;7557;51.698;3.942;2023-08-21T03:09:51;20.90;99.90
9223;DHT22;7557;51.698;3.942;2023-08-21T03:12:19;20.90;99.90
9223;DHT22;7557;51.698;3.942;2023-08-21T03:14:46;20.90;99.90
9223;DHT22;7557;51.698;3.942;2023-08-21T03:17:13;20.90;99.90
9223;DHT22;7557;51.698;3.942;2023-08-21T03:19:40;20.90;99.90
9223;DHT22;7557;51.698;3.942;2023-08-21T03:22:09;20.90;99.90
9223;DHT22;7557;51.698;3.942;2023-08-21T03:24:36;20.90;99.90
9223;DHT22;7557;51.698;3.942;2023-08-21T03:27:04;20.90;99.90
9223;DHT22;7557;51.698;3.942;2023-08-21T03:29:31;20.90;99.90
9223;DHT22;7557;51.698;3.942;2023-08-21T03:31:58;21.00;99.90
9223;DHT22;7557;51.698;3.942;2023-08-21T03:34:26;21.00;99.90
9223;DHT22;7557;51.698;3.942;2023-08-21T03:36:53;21.00;99.90
9223;DHT22;7557;51.698;3.942;2023-08-21T03:39:22;21.00;99.90
9223;DHT22;7557;51.698;3.942;2023-08-21T03:41:50;20.90;99.90
9223;DHT22;7557;51.698;3.942;2023-08-21T03:44:17;20.80;99.90
9223;DHT22;7557;51.698;3.942;2023-08-21T03:46:45;20.70;99.90
9223;DHT22;7557;51.698;3.942;2023-08-21T03:49:12;20.60;99.90
9223;DHT22;7557;51.698;3.942;2023-08-21T03:51:39;20.60;99.90
9223;DHT22;7557;51.698;3.942;2023-08-21T03:54:07;20.60;99.90
9223;DHT22;7557;51.698;3.942;2023-08-21T03:56:35;20.60;99.90
9223;DHT22;7557;51.698;3.942;2023-08-21T03:59:03;20.60;99.90
9223;DHT22;7557;51.698;3.942;2023-08-21T04:01:30;20.60;99.90
9223;DHT22;7557;51.698;3.942;2023-08-21T04:03:58;20.60;99.90
9223;DHT22;7557;51.698;3.942;2023-08-21T04:06:25;20.60;99.90
9223;DHT22;7557;51.698;3.942;2023-08-21T04:08:53;20.70;99.90
9223;DHT22;7557;51.698;3.942;2023-08-21T04:11:20;20.70;99.90
9223;DHT22;7557;51.698;3.942;2023-08-21T04:13:50;20.70;99.90
9223;DHT22;7557;51.698;3.942;2023-08-21T04:16:17;20.70;99.90
9223;DHT22;7557;51.698;3.942;2023-08-21T04:18:47;20.60;99.90
9223;DHT22;7557;51.698;3.942;2023-08-21T04:21:14;20.50;99.90
9223;DHT22;7557;51.698;3.942;2023-08-21T04:23:44;20.50;99.90
9223;DHT22;7557;51.698;3.942;2023-08-21T04:26:12;20.50;99.90
9223;DHT22;7557;51.698;3.942;2023-08-21T04:28:39;20.50;99.90
9223;DHT22;7557;51.698;3.942;2023-08-21T04:31:09;20.50;99.90
9223;DHT22;7557;51.698;3.942;2023-08-21T04:33:37;20.40;99.90
9223;DHT22;7557;51.698;3.942;2023-08-21T04:36:04;20.40;99.90
9223;DHT22;7557;51.698;3.942;2023-08-21T04:38:32;20.40;99.90
9223;DHT22;7557;51.698;3.942;2023-08-21T04:41:06;20.40;99.90
9223;DHT22;7557;51.698;3.942;2023-08-21T04:43:34;20.40;99.90
9223;DHT22;7557;51.698;3.942;2023-08-21T04:46:01;20.30;99.90
9223;DHT22;7557;51.698;3.942;2023-08-21T04:48:30;20.30;99.90
9223;DHT22;7557;51.698;3.942;2023-08-21T04:50:58;20.30;99.90
9223;DHT22;7557;51.698;3.942;2023-08-21T04:53:25;20.30;99.90
9223;DHT22;7557;51.698;3.942;2023-08-21T04:55:53;20.20;99.90
9223;DHT22;7557;51.698;3.942;2023-08-21T04:58:21;20.20;99.90
9223;DHT22;7557;51.698;3.942;2023-08-21T05:00:48;20.10;99.90
9223;DHT22;7557;51.698;3.942;2023-08-21T05:03:15;20.10;99.90
9223;DHT22;7557;51.698;3.942;2023-08-21T05:05:53;20.10;99.90
9223;DHT22;7557;51.698;3.942;2023-08-21T05:08:21;20.10;99.90
9223;DHT22;7557;51.698;3.942;2023-08-21T05:10:52;20.10;99.90
9223;DHT22;7557;51.698;3.942;2023-08-21T05:13:20;20.10;99.90
9223;DHT22;7557;51.698;3.942;2023-08-21T05:15:51;20.10;99.90
9223;DHT22;7557;51.698;3.942;2023-08-21T05:18:19;20.20;99.90
9223;DHT22;7557;51.698;3.942;2023-08-21T05:20:47;20.30;99.90
9223;DHT22;7557;51.698;3.942;2023-08-21T05:23:16;20.30;99.90
9223;DHT22;7557;51.698;3.942;2023-08-21T05:25:44;20.40;99.90
9223;DHT22;7557;51.698;3.942;2023-08-21T05:28:12;20.40;99.90
9223;DHT22;7557;51.698;3.942;2023-08-21T05:30:39;20.50;99.90
9223;DHT22;7557;51.698;3.942;2023-08-21T05:33:07;20.50;99.90
9223;DHT22;7557;51.698;3.942;2023-08-21T05:35:34;20.50;99.90
9223;DHT22;7557;51.698;3.942;2023-08-21T05:38:03;20.70;99.90
9223;DHT22;7557;51.698;3.942;2023-08-21T05:40:32;20.80;99.90
9223;DHT22;7557;51.698;3.942;2023-08-21T05:42:59;20.90;99.90
9223;DHT22;7557;51.698;3.942;2023-08-21T05:45:27;21.00;99.90
9223;DHT22;7557;51.698;3.942;2023-08-21T05:47:55;21.10;99.90
9223;DHT22;7557;51.698;3.942;2023-08-21T05:50:24;21.30;99.90
9223;DHT22;7557;51.698;3.942;2023-08-21T05:52:51;21.40;99.90
9223;DHT22;7557;51.698;3.942;2023-08-21T05:55:23;21.60;99.90
9223;DHT22;7557;51.698;3.942;2023-08-21T05:57:52;21.80;99.90
9223;DHT22;7557;51.698;3.942;2023-08-21T06:00:19;22.00;99.90
9223;DHT22;7557;51.698;3.942;2023-08-21T06:02:46;22.10;99.90
9223;DHT22;7557;51.698;3.942;2023-08-21T06:05:14;22.30;99.90
9223;DHT22;7557;51.698;3.942;2023-08-21T06:07:41;22.40;99.90
9223;DHT22;7557;51.698;3.942;2023-08-21T06:10:10;22.60;99.90
9223;DHT22;7557;51.698;3.942;2023-08-21T06:12:39;22.80;99.90
9223;DHT22;7557;51.698;3.942;2023-08-21T06:15:10;23.00;99.90
9223;DHT22;7557;51.698;3.942;2023-08-21T06:17:37;23.20;99.90
9223;DHT22;7557;51.698;3.942;2023-08-21T06:20:06;23.40;99.90
9223;DHT22;7557;51.698;3.942;2023-08-21T06:22:35;23.50;99.90
9223;DHT22;7557;51.698;3.942;2023-08-21T06:25:03;23.70;99.90
9223;DHT22;7557;51.698;3.942;2023-08-21T06:27:30;23.90;99.90
9223;DHT22;7557;51.698;3.942;2023-08-21T06:29:58;24.00;99.90
9223;DHT22;7557;51.698;3.942;2023-08-21T06:32:27;24.10;99.90
9223;DHT22;7557;51.698;3.942;2023-08-21T06:34:54;24.10;99.90
9223;DHT22;7557;51.698;3.942;2023-08-21T06:37:21;24.30;99.90
9223;DHT22;7557;51.698;3.942;2023-08-21T06:39:49;24.40;99.90
9223;DHT22;7557;51.698;3.942;2023-08-21T06:42:16;24.40;99.90
9223;DHT22;7557;51.698;3.942;2023-08-21T06:44:43;24.40;99.90
9223;DHT22;7557;51.698;3.942;2023-08-21T06:47:11;24.40;99.90
9223;DHT22;7557;51.698;3.942;2023-08-21T06:49:40;24.40;99.90
9223;DHT22;7557;51.698;3.942;2023-08-21T06:52:07;24.20;99.90
9223;DHT22;7557;51.698;3.942;2023-08-21T06:54:34;24.10;99.90
9223;DHT22;7557;51.698;3.942;2023-08-21T06:57:02;24.20;99.90
9223;DHT22;7557;51.698;3.942;2023-08-21T06:59:29;24.30;99.90
9223;DHT22;7557;51.698;3.942;2023-08-21T07:01:59;24.40;99.90
9223;DHT22;7557;51.698;3.942;2023-08-21T07:04:27;24.50;99.90
9223;DHT22;7557;51.698;3.942;2023-08-21T07:06:55;24.60;99.90
9223;DHT22;7557;51.698;3.942;2023-08-21T07:09:23;24.60;99.90
9223;DHT22;7557;51.698;3.942;2023-08-21T07:11:50;24.80;99.90
9223;DHT22;7557;51.698;3.942;2023-08-21T07:14:17;24.80;99.90
9223;DHT22;7557;51.698;3.942;2023-08-21T07:16:45;24.80;99.90
9223;DHT22;7557;51.698;3.942;2023-08-21T07:19:12;24.80;99.90
9223;DHT22;7557;51.698;3.942;2023-08-21T07:21:39;24.80;99.90
9223;DHT22;7557;51.698;3.942;2023-08-21T07:24:08;24.80;99.90
9223;DHT22;7557;51.698;3.942;2023-08-21T07:26:36;24.70;99.90
9223;DHT22;7557;51.698;3.942;2023-08-21T07:29:03;24.70;99.90
9223;DHT22;7557;51.698;3.942;2023-08-21T07:31:31;24.70;99.90
9223;DHT22;7557;51.698;3.942;2023-08-21T07:33:59;24.70;99.90
9223;DHT22;7557;51.698;3.942;2023-08-21T07:36:26;24.70;99.90
9223;DHT22;7557;51.698;3.942;2023-08-21T07:38:55;24.70;99.90
9223;DHT22;7557;51.698;3.942;2023-08-21T07:41:24;24.70;99.90
9223;DHT22;7557;51.698;3.942;2023-08-21T07:43:51;24.80;99.90
9223;DHT22;7557;51.698;3.942;2023-08-21T07:46:18;24.80;99.90
9223;DHT22;7557;51.698;3.942;2023-08-21T07:48:46;25.00;99.90
9223;DHT22;7557;51.698;3.942;2023-08-21T07:51:13;25.10;99.90
9223;DHT22;7557;51.698;3.942;2023-08-21T07:53:40;25.20;99.90
9223;DHT22;7557;51.698;3.942;2023-08-21T07:56:08;25.30;99.90
9223;DHT22;7557;51.698;3.942;2023-08-21T07:58:37;25.50;99.90
9223;DHT22;7557;51.698;3.942;2023-08-21T08:01:04;25.70;99.90
9223;DHT22;7557;51.698;3.942;2023-08-21T08:03:32;25.80;99.90
9223;DHT22;7557;51.698;3.942;2023-08-21T08:05:59;25.80;99.90
9223;DHT22;7557;51.698;3.942;2023-08-21T08:08:26;25.70;99.90
9223;DHT22;7557;51.698;3.942;2023-08-21T08:10:55;25.60;99.90
9223;DHT22;7557;51.698;3.942;2023-08-21T08:13:22;25.60;99.90
9223;DHT22;7557;51.698;3.942;2023-08-21T08:15:50;25.50;99.90
9223;DHT22;7557;51.698;3.942;2023-08-21T08:18:17;25.40;99.90
9223;DHT22;7557;51.698;3.942;2023-08-21T08:20:45;25.30;99.90
9223;DHT22;7557;51.698;3.942;2023-08-21T08:23:12;25.30;99.90
9223;DHT22;7557;51.698;3.942;2023-08-21T08:25:40;25.40;99.90
9223;DHT22;7557;51.698;3.942;2023-08-21T08:28:07;25.40;99.90
9223;DHT22;7557;51.698;3.942;2023-08-21T08:30:34;25.70;99.90
9223;DHT22;7557;51.698;3.942;2023-08-21T08:33:04;25.90;99.90
9223;DHT22;7557;51.698;3.942;2023-08-21T08:35:31;26.10;99.90
9223;DHT22;7557;51.698;3.942;2023-08-21T08:37:58;26.50;99.90
9223;DHT22;7557;51.698;3.942;2023-08-21T08:40:25;26.80;99.90
9223;DHT22;7557;51.698;3.942;2023-08-21T08:42:53;27.00;99.90
9223;DHT22;7557;51.698;3.942;2023-08-21T08:45:30;27.00;99.90
9223;DHT22;7557;51.698;3.942;2023-08-21T08:48:00;26.90;99.90
9223;DHT22;7557;51.698;3.942;2023-08-21T08:50:29;26.80;99.90
9223;DHT22;7557;51.698;3.942;2023-08-21T08:52:58;27.30;99.90
9223;DHT22;7557;51.698;3.942;2023-08-21T08:55:26;27.60;99.90
9223;DHT22;7557;51.698;3.942;2023-08-21T08:57:53;27.40;99.90
9223;DHT22;7557;51.698;3.942;2023-08-21T09:00:21;27.20;99.90
9223;DHT22;7557;51.698;3.942;2023-08-21T09:02:48;27.00;99.90
9223;DHT22;7557;51.698;3.942;2023-08-21T09:05:16;26.80;99.90
9223;DHT22;7557;51.698;3.942;2023-08-21T09:07:45;26.80;99.90
9223;DHT22;7557;51.698;3.942;2023-08-21T09:10:14;26.80;99.90
9223;DHT22;7557;51.698;3.942;2023-08-21T09:12:45;26.70;99.90
9223;DHT22;7557;51.698;3.942;2023-08-21T09:15:13;26.80;99.90
9223;DHT22;7557;51.698;3.942;2023-08-21T09:17:43;26.80;99.90
9223;DHT22;7557;51.698;3.942;2023-08-21T09:20:11;26.90;99.90
9223;DHT22;7557;51.698;3.942;2023-08-21T09:22:38;27.40;99.90
9223;DHT22;7557;51.698;3.942;2023-08-21T09:25:08;28.10;99.90
9223;DHT22;7557;51.698;3.942;2023-08-21T09:27:37;28.40;99.90
9223;DHT22;7557;51.698;3.942;2023-08-21T09:30:06;28.30;99.90
9223;DHT22;7557;51.698;3.942;2023-08-21T09:32:52;28.70;99.70
9223;DHT22;7557;51.698;3.942;2023-08-21T09:35:20;29.00;99.00
9223;DHT22;7557;51.698;3.942;2023-08-21T09:37:47;29.10;99.20
9223;DHT22;7557;51.698;3.942;2023-08-21T09:40:16;29.30;98.90
9223;DHT22;7557;51.698;3.942;2023-08-21T09:42:44;29.60;99.20
9223;DHT22;7557;51.698;3.942;2023-08-21T09:45:11;29.50;98.40
9223;DHT22;7557;51.698;3.942;2023-08-21T09:47:40;28.90;98.40
9223;DHT22;7557;51.698;3.942;2023-08-21T09:50:08;28.30;98.90
9223;DHT22;7557;51.698;3.942;2023-08-21T09:52:36;28.00;99.40
9223;DHT22;7557;51.698;3.942;2023-08-21T09:55:04;28.10;99.50
9223;DHT22;7557;51.698;3.942;2023-08-21T09:57:34;27.90;99.10
9223;DHT22;7557;51.698;3.942;2023-08-21T10:00:03;27.60;99.50
9223;DHT22;7557;51.698;3.942;2023-08-21T10:02:44;27.40;99.90
9223;DHT22;7557;51.698;3.942;2023-08-21T10:05:15;26.90;99.90
9223;DHT22;7557;51.698;3.942;2023-08-21T10:07:44;26.40;99.90
9223;DHT22;7557;51.698;3.942;2023-08-21T10:10:13;26.00;99.90
9223;DHT22;7557;51.698;3.942;2023-08-21T10:12:42;25.50;99.90
9223;DHT22;7557;51.698;3.942;2023-08-21T10:15:10;25.20;99.90
9223;DHT22;7557;51.698;3.942;2023-08-21T10:17:38;24.80;99.90
9223;DHT22;7557;51.698;3.942;2023-08-21T10:20:07;24.70;99.90
9223;DHT22;7557;51.698;3.942;2023-08-21T10:22:42;24.50;99.90
9223;DHT22;7557;51.698;3.942;2023-08-21T10:25:16;24.40;99.90
9223;DHT22;7557;51.698;3.942;2023-08-21T10:27:50;24.40;99.90
9223;DHT22;7557;51.698;3.942;2023-08-21T10:30:21;24.40;99.90
9223;DHT22;7557;51.698;3.942;2023-08-21T10:32:50;24.40;99.90
9223;DHT22;7557;51.698;3.942;2023-08-21T10:35:19;24.40;99.90
9223;DHT22;7557;51.698;3.942;2023-08-21T10:38:09;24.40;99.90
9223;DHT22;7557;51.698;3.942;2023-08-21T10:40:38;24.50;99.90
9223;DHT22;7557;51.698;3.942;2023-08-21T10:46:11;24.90;99.90
9223;DHT22;7557;51.698;3.942;2023-08-21T10:48:39;25.30;99.90
9223;DHT22;7557;51.698;3.942;2023-08-21T10:51:07;25.50;99.90
9223;DHT22;7557;51.698;3.942;2023-08-21T10:53:35;25.60;99.90
9223;DHT22;7557;51.698;3.942;2023-08-21T10:56:05;25.60;99.90
9223;DHT22;7557;51.698;3.942;2023-08-21T10:58:35;25.60;99.90
9223;DHT22;7557;51.698;3.942;2023-08-21T11:01:05;25.50;99.90
9223;DHT22;7557;51.698;3.942;2023-08-21T11:03:34;25.30;99.90
9223;DHT22;7557;51.698;3.942;2023-08-21T11:06:09;25.30;99.90
9223;DHT22;7557;51.698;3.942;2023-08-21T11:08:37;25.50;99.90
9223;DHT22;7557;51.698;3.942;2023-08-21T11:11:05;26.00;99.90
9223;DHT22;7557;51.698;3.942;2023-08-21T11:13:33;26.40;99.90
9223;DHT22;7557;51.698;3.942;2023-08-21T11:16:04;26.90;99.90
9223;DHT22;7557;51.698;3.942;2023-08-21T11:18:36;27.30;99.90
9223;DHT22;7557;51.698;3.942;2023-08-21T11:21:06;27.70;99.90
9223;DHT22;7557;51.698;3.942;2023-08-21T11:23:35;28.00;99.90
9223;DHT22;7557;51.698;3.942;2023-08-21T11:26:03;28.20;99.90
9223;DHT22;7557;51.698;3.942;2023-08-21T11:28:31;28.10;99.80
9223;DHT22;7557;51.698;3.942;2023-08-21T11:30:59;28.00;99.90
9223;DHT22;7557;51.698;3.942;2023-08-21T11:33:27;28.20;99.90
9223;DHT22;7557;51.698;3.942;2023-08-21T11:35:56;28.40;99.80
9223;DHT22;7557;51.698;3.942;2023-08-21T11:38:26;28.60;99.60
9223;DHT22;7557;51.698;3.942;2023-08-21T11:40:57;28.90;99.40
9223;DHT22;7557;51.698;3.942;2023-08-21T11:43:35;29.10;98.90
9223;DHT22;7557;51.698;3.942;2023-08-21T11:46:03;29.30;98.80
9223;DHT22;7557;51.698;3.942;2023-08-21T11:48:31;29.60;98.70
9223;DHT22;7557;51.698;3.942;2023-08-21T11:51:01;29.70;98.20
9223;DHT22;7557;51.698;3.942;2023-08-21T11:53:32;29.90;98.20
9223;DHT22;7557;51.698;3.942;2023-08-21T11:56:00;29.90;98.20
9223;DHT22;7557;51.698;3.942;2023-08-21T11:58:28;29.90;98.00
9223;DHT22;7557;51.698;3.942;2023-08-21T12:01:02;29.80;97.50
9223;DHT22;7557;51.698;3.942;2023-08-21T12:03:30;29.40;97.90
9223;DHT22;7557;51.698;3.942;2023-08-21T12:06:06;29.10;98.20
9223;DHT22;7557;51.698;3.942;2023-08-21T12:08:34;28.60;98.90
9223;DHT22;7557;51.698;3.942;2023-08-21T12:11:02;28.20;99.40
9223;DHT22;7557;51.698;3.942;2023-08-21T12:13:29;28.00;99.80
9223;DHT22;7557;51.698;3.942;2023-08-21T12:15:57;28.10;99.40
9223;DHT22;7557;51.698;3.942;2023-08-21T12:18:24;28.40;99.10
9223;DHT22;7557;51.698;3.942;2023-08-21T12:20:52;28.70;99.10
9223;DHT22;7557;51.698;3.942;2023-08-21T12:23:21;28.70;98.60
9223;DHT22;7557;51.698;3.942;2023-08-21T12:25:48;28.50;99.00
9223;DHT22;7557;51.698;3.942;2023-08-21T12:28:15;28.50;98.80
9223;DHT22;7557;51.698;3.942;2023-08-21T12:30:43;28.50;98.70
9223;DHT22;7557;51.698;3.942;2023-08-21T12:33:11;28.50;98.50
9223;DHT22;7557;51.698;3.942;2023-08-21T12:35:38;28.30;98.40
9223;DHT22;7557;51.698;3.942;2023-08-21T12:38:11;28.30;99.00
9223;DHT22;7557;51.698;3.942;2023-08-21T12:40:41;28.30;98.70
9223;DHT22;7557;51.698;3.942;2023-08-21T12:43:08;28.40;98.60
9223;DHT22;7557;51.698;3.942;2023-08-21T12:45:36;28.70;98.30
9223;DHT22;7557;51.698;3.942;2023-08-21T12:48:04;28.80;98.10
9223;DHT22;7557;51.698;3.942;2023-08-21T12:50:34;28.90;98.10
9223;DHT22;7557;51.698;3.942;2023-08-21T12:53:01;29.00;98.10
9223;DHT22;7557;51.698;3.942;2023-08-21T12:55:29;29.10;97.50
9223;DHT22;7557;51.698;3.942;2023-08-21T12:57:58;29.00;97.40
9223;DHT22;7557;51.698;3.942;2023-08-21T13:00:26;28.80;97.60
9223;DHT22;7557;51.698;3.942;2023-08-21T13:02:53;28.80;98.20
9223;DHT22;7557;51.698;3.942;2023-08-21T13:05:23;28.70;98.00
9223;DHT22;7557;51.698;3.942;2023-08-21T13:07:51;28.70;98.00
9223;DHT22;7557;51.698;3.942;2023-08-21T13:10:18;28.70;98.00
9223;DHT22;7557;51.698;3.942;2023-08-21T13:12:46;28.60;98.20
9223;DHT22;7557;51.698;3.942;2023-08-21T13:15:17;28.60;98.10
9223;DHT22;7557;51.698;3.942;2023-08-21T13:17:44;28.50;98.00
9223;DHT22;7557;51.698;3.942;2023-08-21T13:20:11;28.50;98.00
9223;DHT22;7557;51.698;3.942;2023-08-21T13:22:46;28.50;97.70
9223;DHT22;7557;51.698;3.942;2023-08-21T13:25:14;28.60;97.40
9223;DHT22;7557;51.698;3.942;2023-08-21T13:27:42;28.60;97.60
9223;DHT22;7557;51.698;3.942;2023-08-21T13:30:10;28.60;97.60
9223;DHT22;7557;51.698;3.942;2023-08-21T13:32:39;28.70;98.00
9223;DHT22;7557;51.698;3.942;2023-08-21T13:35:07;28.70;97.90
9223;DHT22;7557;51.698;3.942;2023-08-21T13:37:36;28.60;97.80
9223;DHT22;7557;51.698;3.942;2023-08-21T13:40:04;28.60;97.60
9223;DHT22;7557;51.698;3.942;2023-08-21T13:42:37;28.60;97.80
9223;DHT22;7557;51.698;3.942;2023-08-21T13:45:08;28.50;97.90
9223;DHT22;7557;51.698;3.942;2023-08-21T13:47:38;28.40;97.90
9223;DHT22;7557;51.698;3.942;2023-08-21T13:50:07;28.30;97.70
9223;DHT22;7557;51.698;3.942;2023-08-21T13:52:36;28.20;97.40
9223;DHT22;7557;51.698;3.942;2023-08-21T13:55:06;28.10;97.40
9223;DHT22;7557;51.698;3.942;2023-08-21T13:57:33;28.00;97.30
9223;DHT22;7557;51.698;3.942;2023-08-21T14:00:00;27.90;97.30
9223;DHT22;7557;51.698;3.942;2023-08-21T14:02:28;27.80;97.80
9223;DHT22;7557;51.698;3.942;2023-08-21T14:04:57;27.70;98.50
9223;DHT22;7557;51.698;3.942;2023-08-21T14:07:24;27.70;98.70
9223;DHT22;7557;51.698;3.942;2023-08-21T14:09:52;27.70;98.80
9223;DHT22;7557;51.698;3.942;2023-08-21T14:12:28;27.80;98.60
9223;DHT22;7557;51.698;3.942;2023-08-21T14:14:56;27.70;98.20
9223;DHT22;7557;51.698;3.942;2023-08-21T14:17:23;27.70;98.50
9223;DHT22;7557;51.698;3.942;2023-08-21T14:19:51;27.60;98.30
9223;DHT22;7557;51.698;3.942;2023-08-21T14:22:20;27.50;98.60
9223;DHT22;7557;51.698;3.942;2023-08-21T14:24:48;27.60;98.90
9223;DHT22;7557;51.698;3.942;2023-08-21T14:27:15;27.70;99.20
9223;DHT22;7557;51.698;3.942;2023-08-21T14:29:43;27.80;99.10
9223;DHT22;7557;51.698;3.942;2023-08-21T14:32:10;27.80;98.80
9223;DHT22;7557;51.698;3.942;2023-08-21T14:34:38;27.90;98.70
9223;DHT22;7557;51.698;3.942;2023-08-21T14:37:05;27.80;97.90
9223;DHT22;7557;51.698;3.942;2023-08-21T14:39:34;27.80;97.80
9223;DHT22;7557;51.698;3.942;2023-08-21T14:42:02;27.60;98.30
9223;DHT22;7557;51.698;3.942;2023-08-21T14:44:30;27.50;98.50
9223;DHT22;7557;51.698;3.942;2023-08-21T14:46:57;27.40;99.00
9223;DHT22;7557;51.698;3.942;2023-08-21T14:49:25;27.50;98.90
9223;DHT22;7557;51.698;3.942;2023-08-21T14:51:54;27.50;98.90
9223;DHT22;7557;51.698;3.942;2023-08-21T14:54:21;27.50;99.00
9223;DHT22;7557;51.698;3.942;2023-08-21T14:56:50;27.60;99.30
9223;DHT22;7557;51.698;3.942;2023-08-21T14:59:18;27.60;99.00
9223;DHT22;7557;51.698;3.942;2023-08-21T15:01:45;27.50;99.30
9223;DHT22;7557;51.698;3.942;2023-08-21T15:04:13;27.40;99.30
9223;DHT22;7557;51.698;3.942;2023-08-21T15:06:40;27.30;98.90
9223;DHT22;7557;51.698;3.942;2023-08-21T15:09:08;27.20;99.90
9223;DHT22;7557;51.698;3.942;2023-08-21T15:11:36;27.00;99.90
9223;DHT22;7557;51.698;3.942;2023-08-21T15:14:09;26.80;99.90
9223;DHT22;7557;51.698;3.942;2023-08-21T15:16:38;26.70;99.90
9223;DHT22;7557;51.698;3.942;2023-08-21T15:19:05;26.50;99.90
9223;DHT22;7557;51.698;3.942;2023-08-21T15:21:33;26.40;99.90
9223;DHT22;7557;51.698;3.942;2023-08-21T15:24:01;26.40;99.90
9223;DHT22;7557;51.698;3.942;2023-08-21T15:26:30;26.40;99.90
9223;DHT22;7557;51.698;3.942;2023-08-21T15:28:57;26.40;99.90
9223;DHT22;7557;51.698;3.942;2023-08-21T15:31:26;26.30;99.90
9223;DHT22;7557;51.698;3.942;2023-08-21T15:33:53;26.20;99.90
9223;DHT22;7557;51.698;3.942;2023-08-21T15:36:21;26.00;99.90
9223;DHT22;7557;51.698;3.942;2023-08-21T15:38:48;25.80;99.90
9223;DHT22;7557;51.698;3.942;2023-08-21T15:41:15;25.70;99.90
9223;DHT22;7557;51.698;3.942;2023-08-21T15:43:42;25.60;99.90
9223;DHT22;7557;51.698;3.942;2023-08-21T15:46:10;25.60;99.90
9223;DHT22;7557;51.698;3.942;2023-08-21T15:48:39;25.50;99.90
9223;DHT22;7557;51.698;3.942;2023-08-21T15:51:08;25.40;99.90
9223;DHT22;7557;51.698;3.942;2023-08-21T15:53:36;25.30;99.90
9223;DHT22;7557;51.698;3.942;2023-08-21T15:56:03;25.20;99.90
9223;DHT22;7557;51.698;3.942;2023-08-21T15:58:30;25.20;99.90
9223;DHT22;7557;51.698;3.942;2023-08-21T16:00:58;25.10;99.90
9223;DHT22;7557;51.698;3.942;2023-08-21T16:03:26;25.10;99.90
9223;DHT22;7557;51.698;3.942;2023-08-21T16:05:57;25.00;99.90
9223;DHT22;7557;51.698;3.942;2023-08-21T16:08:27;25.00;99.90
9223;DHT22;7557;51.698;3.942;2023-08-21T16:10:54;25.00;99.90
9223;DHT22;7557;51.698;3.942;2023-08-21T16:13:22;25.00;99.90
9223;DHT22;7557;51.698;3.942;2023-08-21T16:15:49;25.00;99.90